sensor_id;sensor_type;location;lat;lon;timestamp;P1;durP1;ratioP1;P2;durP2;ratioP2
71790;SDS011;59638;52.126;5.434;2022-11-20T00:00:52;9.85;;;5.05;;
71790;SDS011;59638;52.126;5.434;2022-11-20T00:03:19;11.57;;;5.47;;
71790;SDS011;59638;52.126;5.434;2022-11-20T00:05:46;6.57;;;5.33;;
71790;SDS011;59638;52.126;5.434;2022-11-20T00:08:12;11.35;;;5.20;;
71790;SDS011;59638;52.126;5.434;2022-11-20T00:10:39;10.68;;;5.50;;
71790;SDS011;59638;52.126;5.434;2022-11-20T00:13:06;9.27;;;4.75;;
71790;SDS011;59638;52.126;5.434;2022-11-20T00:15:33;11.68;;;6.55;;
71790;SDS011;59638;52.126;5.434;2022-11-20T00:18:00;7.83;;;4.97;;
71790;SDS011;59638;52.126;5.434;2022-11-20T00:20:26;8.35;;;5.82;;
71790;SDS011;59638;52.126;5.434;2022-11-20T00:22:53;10.02;;;5.72;;
71790;SDS011;59638;52.126;5.434;2022-11-20T00:25:19;10.05;;;5.30;;
71790;SDS011;59638;52.126;5.434;2022-11-20T00:27:45;7.07;;;4.93;;
71790;SDS011;59638;52.126;5.434;2022-11-20T00:30:12;7.27;;;5.40;;
71790;SDS011;59638;52.126;5.434;2022-11-20T00:32:40;14.40;;;6.15;;
71790;SDS011;59638;52.126;5.434;2022-11-20T00:35:06;8.18;;;5.80;;
71790;SDS011;59638;52.126;5.434;2022-11-20T00:37:33;9.98;;;5.93;;
71790;SDS011;59638;52.126;5.434;2022-11-20T00:39:59;14.43;;;5.82;;
71790;SDS011;59638;52.126;5.434;2022-11-20T00:42:26;12.80;;;6.63;;
71790;SDS011;59638;52.126;5.434;2022-11-20T00:44:52;12.02;;;6.07;;
71790;SDS011;59638;52.126;5.434;2022-11-20T00:47:18;15.60;;;7.45;;
71790;SDS011;59638;52.126;5.434;2022-11-20T00:49:45;13.90;;;7.30;;
71790;SDS011;59638;52.126;5.434;2022-11-20T00:52:11;16.20;;;6.45;;
71790;SDS011;59638;52.126;5.434;2022-11-20T00:54:37;11.63;;;6.17;;
71790;SDS011;59638;52.126;5.434;2022-11-20T00:57:04;13.98;;;7.03;;
71790;SDS011;59638;52.126;5.434;2022-11-20T00:59:30;10.10;;;6.50;;
71790;SDS011;59638;52.126;5.434;2022-11-20T01:01:57;13.18;;;7.30;;
71790;SDS011;59638;52.126;5.434;2022-11-20T01:04:23;16.88;;;7.60;;
71790;SDS011;59638;52.126;5.434;2022-11-20T01:06:49;14.27;;;6.43;;
71790;SDS011;59638;52.126;5.434;2022-11-20T01:09:16;11.05;;;5.88;;
71790;SDS011;59638;52.126;5.434;2022-11-20T01:11:43;15.70;;;7.15;;
71790;SDS011;59638;52.126;5.434;2022-11-20T01:14:11;13.90;;;6.53;;
71790;SDS011;59638;52.126;5.434;2022-11-20T01:16:40;14.75;;;6.70;;
71790;SDS011;59638;52.126;5.434;2022-11-20T01:19:13;12.37;;;6.37;;
71790;SDS011;59638;52.126;5.434;2022-11-20T01:21:44;17.10;;;7.15;;
71790;SDS011;59638;52.126;5.434;2022-11-20T01:24:12;15.20;;;7.00;;
71790;SDS011;59638;52.126;5.434;2022-11-20T01:26:41;20.50;;;6.32;;
71790;SDS011;59638;52.126;5.434;2022-11-20T01:29:13;14.90;;;7.07;;
71790;SDS011;59638;52.126;5.434;2022-11-20T01:31:42;11.87;;;6.03;;
71790;SDS011;59638;52.126;5.434;2022-11-20T01:34:10;17.90;;;7.22;;
71790;SDS011;59638;52.126;5.434;2022-11-20T01:36:40;8.75;;;6.05;;
71790;SDS011;59638;52.126;5.434;2022-11-20T01:39:10;12.15;;;5.72;;
71790;SDS011;59638;52.126;5.434;2022-11-20T01:41:38;14.13;;;7.07;;
71790;SDS011;59638;52.126;5.434;2022-11-20T01:47:21;14.23;;;5.18;;
71790;SDS011;59638;52.126;5.434;2022-11-20T01:50:22;7.82;;;5.25;;
71790;SDS011;59638;52.126;5.434;2022-11-20T01:55:30;11.90;;;6.45;;
71790;SDS011;59638;52.126;5.434;2022-11-20T01:58:01;7.87;;;5.17;;
71790;SDS011;59638;52.126;5.434;2022-11-20T02:00:28;10.43;;;4.60;;
71790;SDS011;59638;52.126;5.434;2022-11-20T02:02:56;11.50;;;6.57;;
71790;SDS011;59638;52.126;5.434;2022-11-20T02:05:32;11.68;;;5.95;;
71790;SDS011;59638;52.126;5.434;2022-11-20T02:08:03;7.88;;;5.60;;
71790;SDS011;59638;52.126;5.434;2022-11-20T02:10:32;11.50;;;5.73;;
71790;SDS011;59638;52.126;5.434;2022-11-20T02:12:59;9.60;;;5.70;;
71790;SDS011;59638;52.126;5.434;2022-11-20T02:15:44;13.13;;;6.07;;
71790;SDS011;59638;52.126;5.434;2022-11-20T02:18:11;10.68;;;6.03;;
71790;SDS011;59638;52.126;5.434;2022-11-20T02:20:42;12.02;;;6.10;;
71790;SDS011;59638;52.126;5.434;2022-11-20T02:23:25;11.43;;;5.60;;
71790;SDS011;59638;52.126;5.434;2022-11-20T02:26:00;11.95;;;5.13;;
71790;SDS011;59638;52.126;5.434;2022-11-20T02:28:29;8.60;;;4.97;;
71790;SDS011;59638;52.126;5.434;2022-11-20T02:30:55;11.75;;;4.63;;
71790;SDS011;59638;52.126;5.434;2022-11-20T02:33:21;10.70;;;4.97;;
71790;SDS011;59638;52.126;5.434;2022-11-20T02:35:48;10.87;;;5.60;;
71790;SDS011;59638;52.126;5.434;2022-11-20T02:38:14;8.15;;;4.75;;
71790;SDS011;59638;52.126;5.434;2022-11-20T02:40:41;11.85;;;5.15;;
71790;SDS011;59638;52.126;5.434;2022-11-20T02:43:08;7.60;;;4.80;;
71790;SDS011;59638;52.126;5.434;2022-11-20T02:45:35;7.78;;;4.38;;
71790;SDS011;59638;52.126;5.434;2022-11-20T02:48:02;8.53;;;5.07;;
71790;SDS011;59638;52.126;5.434;2022-11-20T02:50:28;7.38;;;3.63;;
71790;SDS011;59638;52.126;5.434;2022-11-20T02:52:54;9.25;;;4.32;;
71790;SDS011;59638;52.126;5.434;2022-11-20T02:55:21;7.40;;;5.32;;
71790;SDS011;59638;52.126;5.434;2022-11-20T02:57:47;5.65;;;4.20;;
71790;SDS011;59638;52.126;5.434;2022-11-20T03:00:14;10.57;;;5.20;;
71790;SDS011;59638;52.126;5.434;2022-11-20T03:02:40;7.97;;;4.35;;
71790;SDS011;59638;52.126;5.434;2022-11-20T03:05:07;6.63;;;3.58;;
71790;SDS011;59638;52.126;5.434;2022-11-20T03:07:33;6.25;;;3.75;;
71790;SDS011;59638;52.126;5.434;2022-11-20T03:10:00;10.27;;;3.78;;
71790;SDS011;59638;52.126;5.434;2022-11-20T03:12:26;8.23;;;4.87;;
71790;SDS011;59638;52.126;5.434;2022-11-20T03:14:52;8.63;;;4.28;;
71790;SDS011;59638;52.126;5.434;2022-11-20T03:17:19;7.00;;;4.03;;
71790;SDS011;59638;52.126;5.434;2022-11-20T03:19:45;9.88;;;4.22;;
71790;SDS011;59638;52.126;5.434;2022-11-20T03:22:12;8.10;;;4.53;;
71790;SDS011;59638;52.126;5.434;2022-11-20T03:24:38;10.00;;;5.13;;
71790;SDS011;59638;52.126;5.434;2022-11-20T03:27:04;6.95;;;3.92;;
71790;SDS011;59638;52.126;5.434;2022-11-20T03:29:31;8.98;;;4.28;;
71790;SDS011;59638;52.126;5.434;2022-11-20T03:31:58;6.43;;;4.30;;
71790;SDS011;59638;52.126;5.434;2022-11-20T03:34:25;5.13;;;4.13;;
71790;SDS011;59638;52.126;5.434;2022-11-20T03:36:51;10.27;;;4.47;;
71790;SDS011;59638;52.126;5.434;2022-11-20T03:39:17;3.45;;;3.15;;
71790;SDS011;59638;52.126;5.434;2022-11-20T03:41:44;6.28;;;3.65;;
71790;SDS011;59638;52.126;5.434;2022-11-20T03:44:11;8.48;;;3.40;;
71790;SDS011;59638;52.126;5.434;2022-11-20T03:46:38;7.18;;;4.47;;
71790;SDS011;59638;52.126;5.434;2022-11-20T03:49:05;7.13;;;3.83;;
71790;SDS011;59638;52.126;5.434;2022-11-20T03:51:32;5.88;;;2.25;;
71790;SDS011;59638;52.126;5.434;2022-11-20T03:54:01;5.80;;;3.33;;
71790;SDS011;59638;52.126;5.434;2022-11-20T03:56:30;7.15;;;4.13;;
71790;SDS011;59638;52.126;5.434;2022-11-20T03:58:58;7.30;;;4.00;;
71790;SDS011;59638;52.126;5.434;2022-11-20T04:01:26;6.30;;;3.73;;
71790;SDS011;59638;52.126;5.434;2022-11-20T04:03:56;11.15;;;3.92;;
71790;SDS011;59638;52.126;5.434;2022-11-20T04:06:24;6.88;;;3.50;;
71790;SDS011;59638;52.126;5.434;2022-11-20T04:08:56;4.75;;;3.45;;
71790;SDS011;59638;52.126;5.434;2022-11-20T04:11:27;8.10;;;3.67;;
71790;SDS011;59638;52.126;5.434;2022-11-20T04:13:56;7.37;;;4.20;;
71790;SDS011;59638;52.126;5.434;2022-11-20T04:16:28;5.60;;;3.92;;
71790;SDS011;59638;52.126;5.434;2022-11-20T04:18:57;4.40;;;3.75;;
71790;SDS011;59638;52.126;5.434;2022-11-20T04:21:25;8.23;;;3.65;;
71790;SDS011;59638;52.126;5.434;2022-11-20T04:23:52;7.90;;;3.25;;
71790;SDS011;59638;52.126;5.434;2022-11-20T04:26:20;6.90;;;3.63;;
71790;SDS011;59638;52.126;5.434;2022-11-20T04:28:48;7.40;;;4.15;;
71790;SDS011;59638;52.126;5.434;2022-11-20T04:31:15;7.07;;;3.85;;
71790;SDS011;59638;52.126;5.434;2022-11-20T04:33:44;5.35;;;3.05;;
71790;SDS011;59638;52.126;5.434;2022-11-20T04:36:18;6.00;;;3.65;;
71790;SDS011;59638;52.126;5.434;2022-11-20T04:38:46;6.00;;;3.37;;
71790;SDS011;59638;52.126;5.434;2022-11-20T04:41:23;4.53;;;2.95;;
71790;SDS011;59638;52.126;5.434;2022-11-20T04:43:55;7.57;;;4.20;;
71790;SDS011;59638;52.126;5.434;2022-11-20T04:46:26;6.65;;;3.85;;
71790;SDS011;59638;52.126;5.434;2022-11-20T04:48:53;9.23;;;3.28;;
71790;SDS011;59638;52.126;5.434;2022-11-20T04:51:19;7.40;;;4.20;;
71790;SDS011;59638;52.126;5.434;2022-11-20T04:53:46;9.40;;;4.25;;
71790;SDS011;59638;52.126;5.434;2022-11-20T04:56:12;9.18;;;4.28;;
71790;SDS011;59638;52.126;5.434;2022-11-20T04:58:39;7.40;;;4.07;;
71790;SDS011;59638;52.126;5.434;2022-11-20T05:01:07;6.18;;;3.28;;
71790;SDS011;59638;52.126;5.434;2022-11-20T05:03:35;7.93;;;3.87;;
71790;SDS011;59638;52.126;5.434;2022-11-20T05:06:07;6.18;;;3.55;;
71790;SDS011;59638;52.126;5.434;2022-11-20T05:08:35;5.47;;;2.60;;
71790;SDS011;59638;52.126;5.434;2022-11-20T05:11:05;8.23;;;4.35;;
71790;SDS011;59638;52.126;5.434;2022-11-20T05:13:33;6.47;;;2.60;;
71790;SDS011;59638;52.126;5.434;2022-11-20T05:16:01;5.63;;;3.93;;
71790;SDS011;59638;52.126;5.434;2022-11-20T05:18:32;8.85;;;3.85;;
71790;SDS011;59638;52.126;5.434;2022-11-20T05:20:59;8.05;;;4.78;;
71790;SDS011;59638;52.126;5.434;2022-11-20T05:23:26;4.75;;;3.10;;
71790;SDS011;59638;52.126;5.434;2022-11-20T05:25:54;4.68;;;2.55;;
71790;SDS011;59638;52.126;5.434;2022-11-20T05:28:24;9.97;;;3.37;;
71790;SDS011;59638;52.126;5.434;2022-11-20T05:30:52;5.93;;;3.97;;
71790;SDS011;59638;52.126;5.434;2022-11-20T05:33:19;8.20;;;4.25;;
71790;SDS011;59638;52.126;5.434;2022-11-20T05:35:45;6.03;;;4.13;;
71790;SDS011;59638;52.126;5.434;2022-11-20T05:38:12;8.02;;;3.90;;
71790;SDS011;59638;52.126;5.434;2022-11-20T05:40:38;7.23;;;4.03;;
71790;SDS011;59638;52.126;5.434;2022-11-20T05:43:04;5.13;;;3.80;;
71790;SDS011;59638;52.126;5.434;2022-11-20T05:45:31;5.53;;;4.07;;
71790;SDS011;59638;52.126;5.434;2022-11-20T05:47:58;7.05;;;3.42;;
71790;SDS011;59638;52.126;5.434;2022-11-20T05:50:27;5.70;;;2.60;;
71790;SDS011;59638;52.126;5.434;2022-11-20T05:52:53;4.57;;;2.97;;
71790;SDS011;59638;52.126;5.434;2022-11-20T05:55:20;6.88;;;4.30;;
71790;SDS011;59638;52.126;5.434;2022-11-20T05:57:46;5.63;;;3.40;;
71790;SDS011;59638;52.126;5.434;2022-11-20T06:00:13;7.57;;;2.90;;
71790;SDS011;59638;52.126;5.434;2022-11-20T06:02:39;7.82;;;3.45;;
71790;SDS011;59638;52.126;5.434;2022-11-20T06:05:06;5.10;;;3.17;;
71790;SDS011;59638;52.126;5.434;2022-11-20T06:07:32;6.88;;;3.28;;
71790;SDS011;59638;52.126;5.434;2022-11-20T06:09:59;5.03;;;3.53;;
71790;SDS011;59638;52.126;5.434;2022-11-20T06:12:25;6.68;;;2.53;;
71790;SDS011;59638;52.126;5.434;2022-11-20T06:14:52;5.93;;;3.60;;
71790;SDS011;59638;52.126;5.434;2022-11-20T06:17:18;8.43;;;3.60;;
71790;SDS011;59638;52.126;5.434;2022-11-20T06:19:44;4.07;;;3.03;;
71790;SDS011;59638;52.126;5.434;2022-11-20T06:22:11;5.60;;;3.88;;
71790;SDS011;59638;52.126;5.434;2022-11-20T06:24:37;6.78;;;3.17;;
71790;SDS011;59638;52.126;5.434;2022-11-20T06:27:04;5.88;;;2.90;;
71790;SDS011;59638;52.126;5.434;2022-11-20T06:29:30;5.47;;;2.93;;
71790;SDS011;59638;52.126;5.434;2022-11-20T06:31:59;5.68;;;3.38;;
71790;SDS011;59638;52.126;5.434;2022-11-20T06:34:25;4.10;;;2.88;;
71790;SDS011;59638;52.126;5.434;2022-11-20T06:36:52;7.28;;;3.20;;
71790;SDS011;59638;52.126;5.434;2022-11-20T06:39:18;6.57;;;3.75;;
71790;SDS011;59638;52.126;5.434;2022-11-20T06:41:45;6.17;;;3.70;;
71790;SDS011;59638;52.126;5.434;2022-11-20T06:44:12;5.10;;;3.00;;
71790;SDS011;59638;52.126;5.434;2022-11-20T06:46:38;9.30;;;3.22;;
71790;SDS011;59638;52.126;5.434;2022-11-20T06:49:04;5.93;;;2.95;;
71790;SDS011;59638;52.126;5.434;2022-11-20T06:51:31;5.35;;;3.40;;
71790;SDS011;59638;52.126;5.434;2022-11-20T06:53:58;6.27;;;3.27;;
71790;SDS011;59638;52.126;5.434;2022-11-20T06:56:24;7.22;;;3.45;;
71790;SDS011;59638;52.126;5.434;2022-11-20T06:58:51;4.88;;;2.95;;
71790;SDS011;59638;52.126;5.434;2022-11-20T07:01:17;6.88;;;3.00;;
71790;SDS011;59638;52.126;5.434;2022-11-20T07:03:43;8.80;;;4.35;;
71790;SDS011;59638;52.126;5.434;2022-11-20T07:06:14;4.60;;;2.83;;
71790;SDS011;59638;52.126;5.434;2022-11-20T07:08:40;7.68;;;3.80;;
71790;SDS011;59638;52.126;5.434;2022-11-20T07:11:06;7.78;;;3.70;;
71790;SDS011;59638;52.126;5.434;2022-11-20T07:13:34;7.45;;;3.72;;
71790;SDS011;59638;52.126;5.434;2022-11-20T07:16:01;6.53;;;4.43;;
71790;SDS011;59638;52.126;5.434;2022-11-20T07:18:29;5.33;;;2.93;;
71790;SDS011;59638;52.126;5.434;2022-11-20T07:20:55;5.03;;;3.38;;
71790;SDS011;59638;52.126;5.434;2022-11-20T07:23:22;4.28;;;3.20;;
71790;SDS011;59638;52.126;5.434;2022-11-20T07:25:48;9.45;;;4.28;;
71790;SDS011;59638;52.126;5.434;2022-11-20T07:28:14;5.22;;;3.05;;
71790;SDS011;59638;52.126;5.434;2022-11-20T07:30:41;4.40;;;2.60;;
71790;SDS011;59638;52.126;5.434;2022-11-20T07:33:07;6.82;;;3.42;;
71790;SDS011;59638;52.126;5.434;2022-11-20T07:35:33;6.47;;;3.10;;
71790;SDS011;59638;52.126;5.434;2022-11-20T07:38:00;4.30;;;3.03;;
71790;SDS011;59638;52.126;5.434;2022-11-20T07:40:26;6.97;;;4.07;;
71790;SDS011;59638;52.126;5.434;2022-11-20T07:42:54;5.07;;;3.23;;
71790;SDS011;59638;52.126;5.434;2022-11-20T07:45:22;5.25;;;3.20;;
71790;SDS011;59638;52.126;5.434;2022-11-20T07:47:50;4.22;;;2.55;;
71790;SDS011;59638;52.126;5.434;2022-11-20T07:50:17;8.10;;;3.40;;
71790;SDS011;59638;52.126;5.434;2022-11-20T07:52:44;9.30;;;4.15;;
71790;SDS011;59638;52.126;5.434;2022-11-20T07:55:10;5.60;;;3.07;;
71790;SDS011;59638;52.126;5.434;2022-11-20T07:57:37;6.40;;;3.72;;
71790;SDS011;59638;52.126;5.434;2022-11-20T08:00:04;5.28;;;3.78;;
71790;SDS011;59638;52.126;5.434;2022-11-20T08:02:38;10.68;;;5.13;;
71790;SDS011;59638;52.126;5.434;2022-11-20T08:05:05;8.52;;;3.78;;
71790;SDS011;59638;52.126;5.434;2022-11-20T08:07:36;6.47;;;4.50;;
71790;SDS011;59638;52.126;5.434;2022-11-20T08:10:04;7.50;;;4.15;;
71790;SDS011;59638;52.126;5.434;2022-11-20T08:12:30;7.03;;;4.07;;
71790;SDS011;59638;52.126;5.434;2022-11-20T08:15:15;10.50;;;4.70;;
71790;SDS011;59638;52.126;5.434;2022-11-20T08:17:42;6.30;;;4.03;;
71790;SDS011;59638;52.126;5.434;2022-11-20T08:20:28;7.70;;;4.00;;
71790;SDS011;59638;52.126;5.434;2022-11-20T08:23:01;11.90;;;4.43;;
71790;SDS011;59638;52.126;5.434;2022-11-20T08:25:29;10.90;;;5.28;;
71790;SDS011;59638;52.126;5.434;2022-11-20T08:27:57;10.10;;;5.68;;
71790;SDS011;59638;52.126;5.434;2022-11-20T08:30:26;12.93;;;4.88;;
71790;SDS011;59638;52.126;5.434;2022-11-20T08:32:53;9.80;;;5.17;;
71790;SDS011;59638;52.126;5.434;2022-11-20T08:35:21;9.52;;;4.80;;
71790;SDS011;59638;52.126;5.434;2022-11-20T08:37:47;10.52;;;5.38;;
71790;SDS011;59638;52.126;5.434;2022-11-20T08:40:15;10.55;;;5.63;;
71790;SDS011;59638;52.126;5.434;2022-11-20T08:42:48;11.38;;;5.82;;
71790;SDS011;59638;52.126;5.434;2022-11-20T08:45:16;9.47;;;5.17;;
71790;SDS011;59638;52.126;5.434;2022-11-20T08:47:44;9.85;;;6.15;;
71790;SDS011;59638;52.126;5.434;2022-11-20T08:50:12;9.95;;;6.13;;
71790;SDS011;59638;52.126;5.434;2022-11-20T08:52:40;13.68;;;6.55;;
71790;SDS011;59638;52.126;5.434;2022-11-20T08:55:06;7.65;;;5.35;;
71790;SDS011;59638;52.126;5.434;2022-11-20T08:57:34;7.50;;;5.47;;
71790;SDS011;59638;52.126;5.434;2022-11-20T09:00:03;10.30;;;6.35;;
71790;SDS011;59638;52.126;5.434;2022-11-20T09:02:32;15.57;;;7.00;;
71790;SDS011;59638;52.126;5.434;2022-11-20T09:04:58;9.75;;;5.57;;
71790;SDS011;59638;52.126;5.434;2022-11-20T09:07:25;12.10;;;6.35;;
71790;SDS011;59638;52.126;5.434;2022-11-20T09:09:51;10.33;;;6.03;;
71790;SDS011;59638;52.126;5.434;2022-11-20T09:12:37;10.70;;;5.38;;
71790;SDS011;59638;52.126;5.434;2022-11-20T09:15:04;12.32;;;5.95;;
71790;SDS011;59638;52.126;5.434;2022-11-20T09:17:30;12.02;;;5.97;;
71790;SDS011;59638;52.126;5.434;2022-11-20T09:19:57;14.05;;;6.80;;
71790;SDS011;59638;52.126;5.434;2022-11-20T09:22:23;10.83;;;6.80;;
71790;SDS011;59638;52.126;5.434;2022-11-20T09:24:50;9.20;;;5.85;;
71790;SDS011;59638;52.126;5.434;2022-11-20T09:27:17;12.80;;;6.55;;
71790;SDS011;59638;52.126;5.434;2022-11-20T09:29:47;15.15;;;7.05;;
71790;SDS011;59638;52.126;5.434;2022-11-20T09:32:13;13.68;;;5.50;;
71790;SDS011;59638;52.126;5.434;2022-11-20T09:34:40;11.07;;;6.73;;
71790;SDS011;59638;52.126;5.434;2022-11-20T09:37:06;12.88;;;6.88;;
71790;SDS011;59638;52.126;5.434;2022-11-20T09:39:33;9.57;;;6.38;;
71790;SDS011;59638;52.126;5.434;2022-11-20T09:42:07;10.60;;;5.80;;
71790;SDS011;59638;52.126;5.434;2022-11-20T09:44:53;15.45;;;7.43;;
71790;SDS011;59638;52.126;5.434;2022-11-20T09:55:39;9.13;;;6.07;;
71790;SDS011;59638;52.126;5.434;2022-11-20T09:58:07;12.80;;;7.03;;
71790;SDS011;59638;52.126;5.434;2022-11-20T10:00:38;10.83;;;7.27;;
71790;SDS011;59638;52.126;5.434;2022-11-20T10:03:13;14.00;;;6.90;;
71790;SDS011;59638;52.126;5.434;2022-11-20T10:06:02;10.85;;;6.47;;
71790;SDS011;59638;52.126;5.434;2022-11-20T10:08:35;10.88;;;7.85;;
71790;SDS011;59638;52.126;5.434;2022-11-20T10:11:13;9.88;;;6.68;;
71790;SDS011;59638;52.126;5.434;2022-11-20T10:14:04;10.07;;;6.33;;
71790;SDS011;59638;52.126;5.434;2022-11-20T10:22:15;11.13;;;7.07;;
71790;SDS011;59638;52.126;5.434;2022-11-20T10:25:16;11.27;;;6.90;;
71790;SDS011;59638;52.126;5.434;2022-11-20T10:27:52;10.17;;;6.13;;
71790;SDS011;59638;52.126;5.434;2022-11-20T10:30:34;7.80;;;6.40;;
71790;SDS011;59638;52.126;5.434;2022-11-20T10:33:04;13.52;;;7.57;;
71790;SDS011;59638;52.126;5.434;2022-11-20T10:35:44;10.15;;;6.85;;
71790;SDS011;59638;52.126;5.434;2022-11-20T10:38:18;10.95;;;7.10;;
71790;SDS011;59638;52.126;5.434;2022-11-20T10:41:06;16.70;;;8.30;;
71790;SDS011;59638;52.126;5.434;2022-11-20T10:43:58;14.75;;;7.60;;
71790;SDS011;59638;52.126;5.434;2022-11-20T10:46:34;11.38;;;7.55;;
71790;SDS011;59638;52.126;5.434;2022-11-20T10:49:11;14.07;;;8.80;;
71790;SDS011;59638;52.126;5.434;2022-11-20T10:54:49;17.60;;;8.20;;
71790;SDS011;59638;52.126;5.434;2022-11-20T10:57:29;16.02;;;8.13;;
71790;SDS011;59638;52.126;5.434;2022-11-20T11:00:12;14.25;;;8.13;;
71790;SDS011;59638;52.126;5.434;2022-11-20T11:02:49;15.73;;;9.35;;
71790;SDS011;59638;52.126;5.434;2022-11-20T11:05:23;13.68;;;9.05;;
71790;SDS011;59638;52.126;5.434;2022-11-20T11:08:14;17.07;;;9.70;;
71790;SDS011;59638;52.126;5.434;2022-11-20T11:10:45;19.55;;;10.40;;
71790;SDS011;59638;52.126;5.434;2022-11-20T11:13:20;15.82;;;9.40;;
71790;SDS011;59638;52.126;5.434;2022-11-20T11:15:48;24.27;;;9.13;;
71790;SDS011;59638;52.126;5.434;2022-11-20T11:20:54;16.47;;;10.10;;
71790;SDS011;59638;52.126;5.434;2022-11-20T11:23:32;16.60;;;8.85;;
71790;SDS011;59638;52.126;5.434;2022-11-20T11:26:03;15.15;;;8.60;;
71790;SDS011;59638;52.126;5.434;2022-11-20T11:28:32;16.63;;;9.65;;
71790;SDS011;59638;52.126;5.434;2022-11-20T11:30:59;15.75;;;9.60;;
71790;SDS011;59638;52.126;5.434;2022-11-20T11:33:26;16.83;;;10.03;;
71790;SDS011;59638;52.126;5.434;2022-11-20T11:36:00;17.25;;;9.75;;
71790;SDS011;59638;52.126;5.434;2022-11-20T11:38:43;19.48;;;10.02;;
71790;SDS011;59638;52.126;5.434;2022-11-20T11:41:17;20.67;;;10.63;;
71790;SDS011;59638;52.126;5.434;2022-11-20T11:43:55;18.35;;;10.02;;
71790;SDS011;59638;52.126;5.434;2022-11-20T11:46:53;21.13;;;9.60;;
71790;SDS011;59638;52.126;5.434;2022-11-20T11:49:22;17.50;;;10.23;;
71790;SDS011;59638;52.126;5.434;2022-11-20T11:54:26;23.30;;;10.30;;
71790;SDS011;59638;52.126;5.434;2022-11-20T11:56:59;22.52;;;11.73;;
71790;SDS011;59638;52.126;5.434;2022-11-20T11:59:38;21.47;;;10.47;;
71790;SDS011;59638;52.126;5.434;2022-11-20T12:07:51;20.17;;;10.57;;
71790;SDS011;59638;52.126;5.434;2022-11-20T12:10:24;15.23;;;9.15;;
71790;SDS011;59638;52.126;5.434;2022-11-20T12:13:08;20.90;;;10.90;;
71790;SDS011;59638;52.126;5.434;2022-11-20T12:15:40;21.73;;;10.77;;
71790;SDS011;59638;52.126;5.434;2022-11-20T12:18:14;19.42;;;10.90;;
71790;SDS011;59638;52.126;5.434;2022-11-20T12:21:05;14.13;;;7.82;;
71790;SDS011;59638;52.126;5.434;2022-11-20T12:26:35;18.70;;;10.40;;
71790;SDS011;59638;52.126;5.434;2022-11-20T12:29:38;21.30;;;10.07;;
71790;SDS011;59638;52.126;5.434;2022-11-20T12:32:19;19.35;;;10.77;;
71790;SDS011;59638;52.126;5.434;2022-11-20T12:37:43;17.65;;;10.75;;
71790;SDS011;59638;52.126;5.434;2022-11-20T12:40:28;17.43;;;10.10;;
71790;SDS011;59638;52.126;5.434;2022-11-20T12:43:19;17.92;;;10.77;;
71790;SDS011;59638;52.126;5.434;2022-11-20T12:51:30;18.50;;;10.10;;
71790;SDS011;59638;52.126;5.434;2022-11-20T12:54:14;16.57;;;10.27;;
71790;SDS011;59638;52.126;5.434;2022-11-20T12:57:15;19.20;;;9.88;;
71790;SDS011;59638;52.126;5.434;2022-11-20T13:08:33;20.07;;;10.50;;
71790;SDS011;59638;52.126;5.434;2022-11-20T13:13:46;18.38;;;10.05;;
71790;SDS011;59638;52.126;5.434;2022-11-20T13:19:03;17.90;;;10.18;;
71790;SDS011;59638;52.126;5.434;2022-11-20T13:21:41;20.90;;;11.23;;
71790;SDS011;59638;52.126;5.434;2022-11-20T13:26:46;17.30;;;9.35;;
71790;SDS011;59638;52.126;5.434;2022-11-20T13:29:16;17.27;;;10.00;;
71790;SDS011;59638;52.126;5.434;2022-11-20T13:31:45;19.58;;;11.38;;
71790;SDS011;59638;52.126;5.434;2022-11-20T13:34:14;16.90;;;10.27;;
71790;SDS011;59638;52.126;5.434;2022-11-20T13:36:51;20.23;;;11.27;;
71790;SDS011;59638;52.126;5.434;2022-11-20T13:39:32;19.70;;;10.80;;
71790;SDS011;59638;52.126;5.434;2022-11-20T13:42:01;19.92;;;11.00;;
71790;SDS011;59638;52.126;5.434;2022-11-20T13:44:46;19.23;;;10.30;;
71790;SDS011;59638;52.126;5.434;2022-11-20T13:47:21;14.97;;;9.43;;
71790;SDS011;59638;52.126;5.434;2022-11-20T13:49:49;22.33;;;9.52;;
71790;SDS011;59638;52.126;5.434;2022-11-20T13:52:39;26.42;;;10.18;;
71790;SDS011;59638;52.126;5.434;2022-11-20T13:55:34;19.42;;;10.20;;
71790;SDS011;59638;52.126;5.434;2022-11-20T14:01:00;19.40;;;9.57;;
71790;SDS011;59638;52.126;5.434;2022-11-20T14:03:34;22.38;;;11.48;;
71790;SDS011;59638;52.126;5.434;2022-11-20T14:06:26;19.88;;;10.10;;
71790;SDS011;59638;52.126;5.434;2022-11-20T14:08:55;16.83;;;8.85;;
71790;SDS011;59638;52.126;5.434;2022-11-20T14:11:22;21.00;;;10.57;;
71790;SDS011;59638;52.126;5.434;2022-11-20T14:13:57;19.00;;;10.40;;
71790;SDS011;59638;52.126;5.434;2022-11-20T14:16:39;23.88;;;10.07;;
71790;SDS011;59638;52.126;5.434;2022-11-20T14:21:54;19.30;;;10.25;;
71790;SDS011;59638;52.126;5.434;2022-11-20T14:24:32;21.00;;;7.75;;
71790;SDS011;59638;52.126;5.434;2022-11-20T14:26:58;20.63;;;9.77;;
71790;SDS011;59638;52.126;5.434;2022-11-20T14:29:35;20.40;;;9.98;;
71790;SDS011;59638;52.126;5.434;2022-11-20T14:32:03;24.08;;;10.55;;
71790;SDS011;59638;52.126;5.434;2022-11-20T14:34:31;19.65;;;10.05;;
71790;SDS011;59638;52.126;5.434;2022-11-20T14:37:02;23.25;;;10.98;;
71790;SDS011;59638;52.126;5.434;2022-11-20T14:39:35;30.00;;;10.90;;
71790;SDS011;59638;52.126;5.434;2022-11-20T14:42:03;24.23;;;10.57;;
71790;SDS011;59638;52.126;5.434;2022-11-20T14:44:41;23.63;;;10.82;;
71790;SDS011;59638;52.126;5.434;2022-11-20T14:47:08;24.15;;;12.70;;
71790;SDS011;59638;52.126;5.434;2022-11-20T14:49:38;21.27;;;10.43;;
71790;SDS011;59638;52.126;5.434;2022-11-20T14:52:20;23.57;;;11.00;;
71790;SDS011;59638;52.126;5.434;2022-11-20T14:54:52;25.70;;;10.98;;
71790;SDS011;59638;52.126;5.434;2022-11-20T14:57:22;25.80;;;11.95;;
71790;SDS011;59638;52.126;5.434;2022-11-20T15:02:44;20.60;;;11.35;;
71790;SDS011;59638;52.126;5.434;2022-11-20T15:05:12;19.33;;;10.73;;
71790;SDS011;59638;52.126;5.434;2022-11-20T15:07:42;21.70;;;12.63;;
71790;SDS011;59638;52.126;5.434;2022-11-20T15:12:48;23.67;;;11.68;;
71790;SDS011;59638;52.126;5.434;2022-11-20T15:15:30;24.90;;;11.30;;
71790;SDS011;59638;52.126;5.434;2022-11-20T15:18:01;24.90;;;11.30;;
71790;SDS011;59638;52.126;5.434;2022-11-20T15:20:28;21.60;;;11.60;;
71790;SDS011;59638;52.126;5.434;2022-11-20T15:22:57;23.00;;;11.75;;
71790;SDS011;59638;52.126;5.434;2022-11-20T15:25:24;35.20;;;12.63;;
71790;SDS011;59638;52.126;5.434;2022-11-20T15:27:52;29.92;;;12.20;;
71790;SDS011;59638;52.126;5.434;2022-11-20T15:30:22;22.07;;;11.60;;
71790;SDS011;59638;52.126;5.434;2022-11-20T15:32:49;18.80;;;10.82;;
71790;SDS011;59638;52.126;5.434;2022-11-20T15:35:16;27.40;;;12.68;;
71790;SDS011;59638;52.126;5.434;2022-11-20T15:37:42;21.25;;;11.20;;
71790;SDS011;59638;52.126;5.434;2022-11-20T15:40:09;20.00;;;11.30;;
71790;SDS011;59638;52.126;5.434;2022-11-20T15:42:36;22.43;;;11.80;;
71790;SDS011;59638;52.126;5.434;2022-11-20T15:45:02;20.65;;;9.70;;
71790;SDS011;59638;52.126;5.434;2022-11-20T15:47:31;25.75;;;12.30;;
71790;SDS011;59638;52.126;5.434;2022-11-20T15:49:59;24.05;;;12.20;;
71790;SDS011;59638;52.126;5.434;2022-11-20T15:52:26;32.65;;;13.82;;
71790;SDS011;59638;52.126;5.434;2022-11-20T15:55:01;31.33;;;13.43;;
71790;SDS011;59638;52.126;5.434;2022-11-20T15:57:34;30.17;;;14.38;;
71790;SDS011;59638;52.126;5.434;2022-11-20T16:00:01;20.25;;;10.30;;
71790;SDS011;59638;52.126;5.434;2022-11-20T16:02:27;27.73;;;12.48;;
71790;SDS011;59638;52.126;5.434;2022-11-20T16:04:54;20.20;;;10.23;;
71790;SDS011;59638;52.126;5.434;2022-11-20T16:07:20;21.90;;;11.67;;
71790;SDS011;59638;52.126;5.434;2022-11-20T16:09:46;23.15;;;10.07;;